Aérodrome :
LOGIN :

S'inscrire | Disclaimer

   EN    FR    IT 

 










Légende :    VFR   VFR Marginal   IFR   IFR Intensif   IFR Très Intensif
Visi : 
Plafond : 
>= 8 km
>= 3000ft
5 à 8 km
1000 à 3000 ft
1500m à 5 km
500 à 1000 ft
800 à 1500m
200 à 500 ft
< 800m
< 200 ft
Symboles :   Orages  Brouillard  Fortes neiges  Fortes précipitations  Vent > 20 kt
SIGMETs :   Divers  Orages  Givrage  Turbulence  Onde Orograph.  Cendres Volcan.






- Altitude de l'aérodrome : 779 ft
- Code IATA : CMF


LFLB - Chambery / Aix-Les-Bains

DERNIER METAR :
  • 062000Z AUTO 18002KT 7000 NSC 01/M00 Q1021 TEMPO 0500 FG BKN006

METARs EXPIRÉS :
  • 061930Z AUTO 18002KT 6000 NSC 01/M00 Q1021 TEMPO 0500 FG BKN006
  • 061900Z AUTO 22001KT 5000 BR NSC 01/M00 Q1021 TEMPO 0500 FG BKN006
  • 061830Z AUTO VRB01KT 6000 NSC 01/M01 Q1021 TEMPO 0500 FG BKN006
  • 061800Z AUTO 17003KT 6000 NSC 01/M01 Q1021 TEMPO 0500 FG BKN006
  • 061730Z AUTO VRB02KT 6000 NSC 01/M01 Q1021 NOSIG

TAF TAF LFLB
Valide du 06 à 18h jusqu'au 07 à 18h UTC


061700Z 0618/0718 18003KT CAVOK
PROB40
TEMPO 0618/0622 4000 BR
PROB30
TEMPO 0619/0622 0500 FG BKN006
BECMG 0623/0702 BKN050
PROB30
TEMPO 0702/0712 -RA
BECMG 0704/0706 VRB02KT



MET'MAP, la Météo Aéronautique d'un coup d'oeil ! - Copyright ORBIFLY Décembre 2007 - Disclaimer

ORBIFLY MET'MAP TEAM :

Programmation & Développement : Alexandra Zaïnal
Sur une idée originale de : Baudouin d'Aumeries
Assistance à la programmation : Marc-Olivier Méhu
Soutien technique & logistique : Manuel Goepfert

Contact : metmap@orbifly.com




SOURCES & CREDITS :

   NOAA